createdAt,value
2017-03-25T00:00:21.946Z,7.43
2017-03-25T00:01:02.851Z,7.35
2017-03-25T00:01:43.729Z,7.29
2017-03-25T00:02:24.608Z,7.31
2017-03-25T00:03:05.484Z,7.21
2017-03-25T00:03:46.363Z,7.11
2017-03-25T00:04:27.249Z,7.11
2017-03-25T00:05:08.131Z,7.11
2017-03-25T00:05:49.014Z,7.1
2017-03-25T00:06:29.894Z,7.06
2017-03-25T00:07:10.783Z,7.03
2017-03-25T00:07:51.659Z,7.21
2017-03-25T00:08:32.537Z,7.29
2017-03-25T00:09:13.417Z,7.31
2017-03-25T00:09:54.308Z,7.47
2017-03-25T00:10:35.192Z,7.36
2017-03-25T00:11:16.070Z,7.29
2017-03-25T00:11:56.952Z,7.38
2017-03-25T00:12:37.832Z,7.29
2017-03-25T00:13:18.714Z,7.33
2017-03-25T00:13:59.596Z,7.39
2017-03-25T00:14:40.474Z,7.31
2017-03-25T00:15:21.356Z,7.4
2017-03-25T00:16:02.241Z,7.43
2017-03-25T00:16:43.112Z,7.29
2017-03-25T00:17:23.996Z,7.29
2017-03-25T00:18:04.877Z,7.31
2017-03-25T00:18:45.761Z,7.18
2017-03-25T00:19:26.646Z,7.1
2017-03-25T00:20:07.524Z,6.87
2017-03-25T00:20:48.402Z,6.77
2017-03-25T00:21:29.286Z,6.74
2017-03-25T00:22:10.170Z,6.69
2017-03-25T00:22:51.048Z,6.79
2017-03-25T00:23:31.935Z,6.88
2017-03-25T00:24:12.817Z,6.87
2017-03-25T00:24:53.698Z,6.77
2017-03-25T00:25:34.582Z,6.74
2017-03-25T00:26:15.459Z,6.74
2017-03-25T00:26:56.339Z,6.78
2017-03-25T00:27:37.224Z,6.7
2017-03-25T00:28:18.104Z,6.66
2017-03-25T00:28:58.975Z,6.7
2017-03-25T00:29:39.857Z,6.67
2017-03-25T00:30:20.736Z,6.67
2017-03-25T00:31:01.621Z,6.75
2017-03-25T00:31:42.502Z,6.7
2017-03-25T00:32:23.383Z,6.72
2017-03-25T00:33:04.270Z,6.87
2017-03-25T00:33:45.152Z,6.75
2017-03-25T00:34:26.030Z,6.84
2017-03-25T00:35:06.916Z,6.89
2017-03-25T00:35:47.800Z,6.67
2017-03-25T00:36:28.696Z,6.67
2017-03-25T00:37:09.574Z,6.7
2017-03-25T00:37:50.483Z,6.7
2017-03-25T00:38:31.353Z,6.74
2017-03-25T00:39:12.238Z,6.72
2017-03-25T00:39:53.116Z,6.72
2017-03-25T00:40:33.998Z,6.62
2017-03-25T00:41:14.879Z,6.64
2017-03-25T00:41:55.760Z,6.6
2017-03-25T00:42:36.639Z,6.62
2017-03-25T00:43:17.515Z,6.51
2017-03-25T00:43:58.402Z,6.52
2017-03-25T00:44:39.291Z,6.51
2017-03-25T00:45:20.178Z,6.52
2017-03-25T00:46:01.059Z,6.6
2017-03-25T00:46:41.944Z,6.67
2017-03-25T00:47:22.835Z,6.85
2017-03-25T00:48:03.717Z,6.75
2017-03-25T00:48:44.603Z,6.78
2017-03-25T00:49:25.492Z,6.82
2017-03-25T00:50:06.383Z,6.74
2017-03-25T00:50:47.265Z,6.77
2017-03-25T00:51:28.156Z,6.72
2017-03-25T00:52:09.039Z,6.62
2017-03-25T00:52:49.921Z,6.48
2017-03-25T00:53:30.802Z,6.63
2017-03-25T00:54:11.689Z,6.51
2017-03-25T00:54:52.571Z,6.6
2017-03-25T00:55:33.456Z,6.59
2017-03-25T00:56:14.335Z,6.59
2017-03-25T00:56:55.219Z,6.64
2017-03-25T00:57:36.102Z,6.57
2017-03-25T00:58:16.978Z,6.57
2017-03-25T00:58:57.864Z,6.42
2017-03-25T00:59:38.746Z,6.39
2017-03-25T01:00:19.630Z,6.31
2017-03-25T01:01:00.511Z,6.35
2017-03-25T01:01:41.396Z,6.33
2017-03-25T01:02:22.277Z,6.36
2017-03-25T01:03:03.162Z,6.33
2017-03-25T01:03:44.046Z,6.33
2017-03-25T01:04:24.925Z,6.28
2017-03-25T01:05:05.804Z,6.31
2017-03-25T01:05:46.691Z,6.44
2017-03-25T01:06:27.573Z,6.31
2017-03-25T01:07:08.449Z,6.33
2017-03-25T01:07:49.333Z,6.3
2017-03-25T01:08:30.212Z,6.28
2017-03-25T01:09:11.095Z,6.33
2017-03-25T01:09:51.972Z,6.3
2017-03-25T01:10:32.850Z,6.17
2017-03-25T01:11:13.734Z,6.19
2017-03-25T01:11:54.617Z,6.27
2017-03-25T01:12:35.503Z,6.17
2017-03-25T01:13:16.382Z,6.16
2017-03-25T01:13:57.259Z,6.2
2017-03-25T01:14:38.141Z,6.19
2017-03-25T01:15:19.030Z,6.2
2017-03-25T01:15:59.907Z,6.14
2017-03-25T01:16:40.794Z,6.16
2017-03-25T01:17:21.683Z,6.42
2017-03-25T01:18:02.563Z,6.44
2017-03-25T01:18:43.433Z,6.48
2017-03-25T01:19:24.312Z,6.57
2017-03-25T01:20:05.195Z,6.52
2017-03-25T01:20:46.078Z,6.33
2017-03-25T01:21:26.961Z,6.3
2017-03-25T01:22:07.840Z,6.16
2017-03-25T01:22:48.730Z,6.42
2017-03-25T01:23:29.647Z,6.42
2017-03-25T01:24:10.497Z,6.3
2017-03-25T01:24:51.372Z,6.17
2017-03-25T01:25:32.254Z,6.09
2017-03-25T01:26:13.136Z,6.02
2017-03-25T01:26:54.020Z,6.07
2017-03-25T01:27:34.901Z,6.12
2017-03-25T01:28:15.785Z,6.12
2017-03-25T01:28:56.667Z,6.16
2017-03-25T01:29:37.534Z,6.12
2017-03-25T01:30:18.416Z,6.17
2017-03-25T01:30:59.287Z,6.2
2017-03-25T01:31:40.167Z,6.3
2017-03-25T01:32:21.049Z,6.28
2017-03-25T01:33:01.932Z,6.3
2017-03-25T01:33:42.809Z,6.16
2017-03-25T01:34:23.690Z,6.24
2017-03-25T01:35:04.579Z,6.12
2017-03-25T01:35:45.459Z,6.22
2017-03-25T01:36:26.341Z,6.2
2017-03-25T01:37:07.221Z,6.24
2017-03-25T01:37:48.105Z,6.11
2017-03-25T01:38:28.986Z,6.08
2017-03-25T01:39:09.867Z,6.11
2017-03-25T01:39:50.743Z,6.19
2017-03-25T01:40:31.623Z,6.28
2017-03-25T01:41:12.506Z,6.31
2017-03-25T01:41:53.391Z,6.14
2017-03-25T01:42:34.270Z,6.05
2017-03-25T01:43:15.151Z,6.09
2017-03-25T01:43:56.032Z,6.11
2017-03-25T01:44:36.914Z,6.12
2017-03-25T01:45:17.793Z,6.07
2017-03-25T01:45:58.674Z,6.02
2017-03-25T01:46:39.554Z,6.07
2017-03-25T01:47:20.433Z,6.07
2017-03-25T01:48:01.315Z,6.04
2017-03-25T01:48:42.196Z,6.08
2017-03-25T01:49:23.082Z,6.07
2017-03-25T01:50:03.970Z,6.08
2017-03-25T01:50:44.854Z,6.11
2017-03-25T01:51:25.728Z,6.08
2017-03-25T01:52:06.608Z,6.08
2017-03-25T01:52:47.491Z,6.11
2017-03-25T01:53:28.377Z,5.99
2017-03-25T01:54:09.262Z,6.07
2017-03-25T01:54:50.138Z,6.07
2017-03-25T01:55:31.024Z,6.01
2017-03-25T01:56:11.904Z,6.05
2017-03-25T01:56:52.782Z,6.01
2017-03-25T01:57:33.664Z,6.07
2017-03-25T01:58:14.548Z,6.04
2017-03-25T01:58:55.431Z,6.08
2017-03-25T01:59:36.312Z,5.99
2017-03-25T02:00:17.192Z,5.93
2017-03-25T02:00:58.058Z,5.97
2017-03-25T02:01:38.935Z,6.02
2017-03-25T02:02:19.821Z,6.02
2017-03-25T02:03:00.708Z,6.04
2017-03-25T02:03:41.590Z,6.11
2017-03-25T02:04:22.471Z,6.09
2017-03-25T02:05:03.355Z,6.27
2017-03-25T02:05:44.239Z,6.39
2017-03-25T02:06:25.121Z,6.52
2017-03-25T02:07:06.001Z,6.39
2017-03-25T02:07:46.881Z,6.28
2017-03-25T02:08:27.765Z,6.33
2017-03-25T02:09:08.641Z,6.2
2017-03-25T02:09:49.523Z,6.11
2017-03-25T02:10:30.409Z,6.09
2017-03-25T02:11:11.329Z,6.08
2017-03-25T02:11:52.175Z,6.05
2017-03-25T02:12:33.062Z,6.09
2017-03-25T02:13:13.943Z,6.16
2017-03-25T02:13:54.822Z,6.39
2017-03-25T02:14:35.708Z,6.36
2017-03-25T02:15:16.587Z,6.2
2017-03-25T02:15:57.475Z,6.01
2017-03-25T02:16:38.356Z,5.94
2017-03-25T02:17:19.239Z,6.05
2017-03-25T02:18:00.123Z,5.98
2017-03-25T02:18:41.002Z,6.07
2017-03-25T02:19:21.884Z,5.94
2017-03-25T02:20:02.770Z,5.94
2017-03-25T02:20:43.654Z,5.91
2017-03-25T02:21:24.546Z,5.93
2017-03-25T02:22:05.420Z,6.07
2017-03-25T02:22:46.304Z,6.14
2017-03-25T02:23:27.187Z,6.14
2017-03-25T02:24:08.069Z,6.08
2017-03-25T02:24:48.954Z,6.04
2017-03-25T02:25:29.839Z,5.98
2017-03-25T02:26:10.722Z,6.04
2017-03-25T02:26:51.606Z,5.99
2017-03-25T02:27:32.486Z,5.98
2017-03-25T02:28:13.365Z,6.09
2017-03-25T02:28:54.245Z,6.08
2017-03-25T02:29:35.137Z,6.07
2017-03-25T02:30:16.019Z,6.09
2017-03-25T02:30:56.898Z,6.16
2017-03-25T02:31:37.779Z,6.11
2017-03-25T02:32:18.656Z,6.14
2017-03-25T02:32:59.531Z,6.05
2017-03-25T02:33:40.423Z,6.02
2017-03-25T02:34:21.307Z,5.99
2017-03-25T02:35:02.184Z,5.84
2017-03-25T02:35:43.064Z,5.97
2017-03-25T02:36:23.939Z,5.9
2017-03-25T02:37:04.812Z,5.89
2017-03-25T02:37:45.691Z,5.9
2017-03-25T02:38:26.570Z,5.87
2017-03-25T02:39:07.456Z,5.89
2017-03-25T02:39:48.342Z,5.9
2017-03-25T02:40:29.222Z,5.86
2017-03-25T02:41:10.099Z,5.94
2017-03-25T02:41:50.987Z,5.91
2017-03-25T02:42:31.871Z,5.94
2017-03-25T02:43:12.749Z,6.12
2017-03-25T02:43:53.628Z,6.07
2017-03-25T02:44:34.509Z,6.02
2017-03-25T02:45:15.393Z,6.07
2017-03-25T02:45:56.276Z,6.09
2017-03-25T02:46:37.159Z,6.17
2017-03-25T02:47:18.038Z,6.11
2017-03-25T02:47:58.920Z,6.16
2017-03-25T02:48:39.798Z,6.17
2017-03-25T02:49:20.680Z,6.05
2017-03-25T02:50:01.561Z,6.08
2017-03-25T02:50:42.444Z,6.3
2017-03-25T02:51:23.328Z,6.42
2017-03-25T02:52:04.212Z,6.48
2017-03-25T02:52:45.099Z,6.44
2017-03-25T02:53:25.986Z,6.48
2017-03-25T02:54:06.870Z,6.51
2017-03-25T02:54:47.748Z,6.44
2017-03-25T02:55:28.627Z,6.46
2017-03-25T02:56:09.503Z,6.51
2017-03-25T02:56:50.388Z,6.49
2017-03-25T02:57:31.268Z,6.51
2017-03-25T02:58:12.152Z,6.41
2017-03-25T02:58:53.032Z,6.42
2017-03-25T02:59:33.920Z,6.31
2017-03-25T03:00:14.806Z,6.3
2017-03-25T03:00:55.686Z,6.39
2017-03-25T03:01:36.568Z,6.51
2017-03-25T03:02:17.454Z,6.57
2017-03-25T03:02:58.333Z,6.6
2017-03-25T03:03:39.217Z,6.39
2017-03-25T03:04:20.096Z,6.39
2017-03-25T03:05:00.980Z,6.44
2017-03-25T03:05:41.863Z,6.56
2017-03-25T03:06:22.742Z,6.57
2017-03-25T03:07:03.629Z,6.56
2017-03-25T03:07:44.514Z,6.72
2017-03-25T03:08:25.393Z,6.63
2017-03-25T03:09:06.278Z,6.79
2017-03-25T03:09:47.157Z,6.74
2017-03-25T03:10:28.035Z,6.74
2017-03-25T03:11:08.911Z,6.66
2017-03-25T03:11:49.786Z,6.78
2017-03-25T03:12:30.665Z,6.78
2017-03-25T03:13:11.546Z,6.77
2017-03-25T03:13:52.430Z,6.72
2017-03-25T03:14:33.311Z,6.66
2017-03-25T03:15:14.195Z,6.67
2017-03-25T03:15:55.077Z,6.66
2017-03-25T03:16:35.959Z,6.74
2017-03-25T03:17:16.844Z,6.77
2017-03-25T03:17:57.722Z,6.81
2017-03-25T03:18:38.598Z,6.81
2017-03-25T03:19:19.480Z,6.64
2017-03-25T03:20:00.358Z,6.62
2017-03-25T03:20:41.239Z,6.59
2017-03-25T03:21:22.118Z,6.6
2017-03-25T03:22:02.999Z,6.57
2017-03-25T03:22:43.882Z,6.6
2017-03-25T03:23:24.763Z,6.54
2017-03-25T03:24:05.651Z,6.54
2017-03-25T03:24:46.532Z,6.56
2017-03-25T03:25:27.416Z,6.63
2017-03-25T03:26:08.299Z,6.63
2017-03-25T03:26:49.185Z,6.59
2017-03-25T03:27:30.083Z,6.56
2017-03-25T03:28:10.959Z,6.62
2017-03-25T03:28:51.848Z,6.54
2017-03-25T03:29:32.727Z,6.57
2017-03-25T03:30:13.610Z,6.52
2017-03-25T03:30:54.493Z,6.54
2017-03-25T03:31:35.372Z,6.54
2017-03-25T03:32:16.254Z,6.52
2017-03-25T03:32:57.135Z,6.54
2017-03-25T03:33:38.017Z,6.59
2017-03-25T03:34:18.898Z,6.54
2017-03-25T03:34:59.785Z,6.69
2017-03-25T03:35:40.664Z,6.67
2017-03-25T03:36:21.552Z,6.7
2017-03-25T03:37:02.438Z,6.57
2017-03-25T03:37:43.327Z,6.56
2017-03-25T03:38:24.215Z,6.56
2017-03-25T03:39:05.091Z,6.62
2017-03-25T03:39:45.968Z,6.54
2017-03-25T03:40:26.854Z,6.48
2017-03-25T03:41:07.734Z,6.42
2017-03-25T03:41:48.616Z,6.41
2017-03-25T03:42:29.501Z,6.48
2017-03-25T03:43:10.379Z,6.49
2017-03-25T03:43:51.266Z,6.52
2017-03-25T03:44:32.153Z,6.52
2017-03-25T03:45:13.038Z,6.52
2017-03-25T03:45:53.918Z,6.54
2017-03-25T03:46:34.798Z,6.49
2017-03-25T03:47:15.681Z,6.6
2017-03-25T03:47:56.565Z,6.57
2017-03-25T03:48:37.452Z,6.52
2017-03-25T03:49:18.333Z,6.56
2017-03-25T03:49:59.216Z,6.52
2017-03-25T03:50:40.098Z,6.57
2017-03-25T03:51:20.986Z,6.49
2017-03-25T03:52:01.867Z,6.46
2017-03-25T03:52:42.750Z,6.52
2017-03-25T03:53:23.631Z,6.52
2017-03-25T03:54:04.518Z,6.57
2017-03-25T03:54:45.397Z,6.6
2017-03-25T03:55:26.282Z,6.51
2017-03-25T03:56:07.173Z,6.52
2017-03-25T03:56:48.050Z,6.51
2017-03-25T03:57:28.932Z,6.48
2017-03-25T03:58:09.817Z,6.41
2017-03-25T03:58:50.701Z,6.42
2017-03-25T03:59:31.583Z,6.41
2017-03-25T04:00:12.464Z,6.41
2017-03-25T04:00:53.348Z,6.42
2017-03-25T04:01:34.229Z,6.42
2017-03-25T04:02:15.110Z,6.42
2017-03-25T04:02:55.989Z,6.41
2017-03-25T04:03:36.873Z,6.42
2017-03-25T04:04:17.755Z,6.38
2017-03-25T04:04:58.635Z,6.54
2017-03-25T04:05:39.513Z,6.45
2017-03-25T04:06:20.396Z,6.48
2017-03-25T04:07:01.278Z,6.52
2017-03-25T04:07:42.158Z,6.51
2017-03-25T04:08:23.044Z,6.63
2017-03-25T04:09:03.926Z,6.42
2017-03-25T04:09:44.808Z,6.56
2017-03-25T04:10:25.695Z,6.57
2017-03-25T04:11:06.575Z,6.54
2017-03-25T04:11:47.451Z,6.52
2017-03-25T04:12:28.337Z,6.56
2017-03-25T04:13:09.220Z,6.54
2017-03-25T04:13:50.100Z,6.42
2017-03-25T04:14:30.984Z,6.41
2017-03-25T04:15:11.870Z,6.57
2017-03-25T04:15:52.756Z,6.51
2017-03-25T04:16:33.644Z,6.54
2017-03-25T04:17:14.522Z,6.49
2017-03-25T04:17:55.408Z,6.51
2017-03-25T04:18:36.287Z,6.57
2017-03-25T04:19:17.168Z,6.49
2017-03-25T04:19:58.045Z,6.54
2017-03-25T04:20:38.924Z,6.45
2017-03-25T04:21:19.810Z,6.36
2017-03-25T04:22:00.698Z,6.54
2017-03-25T04:22:41.578Z,6.46
2017-03-25T04:23:22.457Z,6.45
2017-03-25T04:24:03.340Z,6.52
2017-03-25T04:24:44.218Z,6.45
2017-03-25T04:25:25.099Z,6.51
2017-03-25T04:26:05.977Z,6.45
2017-03-25T04:26:46.862Z,6.48
2017-03-25T04:27:27.746Z,6.45
2017-03-25T04:28:08.634Z,6.54
2017-03-25T04:28:49.513Z,6.44
2017-03-25T04:29:30.391Z,6.45
2017-03-25T04:30:11.277Z,6.51
2017-03-25T04:30:52.161Z,6.39
2017-03-25T04:31:33.045Z,6.42
2017-03-25T04:32:13.931Z,6.42
2017-03-25T04:32:54.813Z,6.44
2017-03-25T04:33:35.717Z,6.41
2017-03-25T04:34:16.572Z,6.42
2017-03-25T04:34:57.447Z,6.41
2017-03-25T04:35:38.330Z,6.39
2017-03-25T04:36:19.216Z,6.57
2017-03-25T04:37:00.092Z,6.49
2017-03-25T04:37:40.973Z,6.42
2017-03-25T04:38:21.870Z,6.51
2017-03-25T04:39:02.752Z,6.42
2017-03-25T04:39:43.643Z,6.39
2017-03-25T04:40:24.505Z,6.41
2017-03-25T04:41:05.392Z,6.42
2017-03-25T04:41:46.274Z,6.44
2017-03-25T04:42:27.159Z,6.46
2017-03-25T04:43:08.030Z,6.46
2017-03-25T04:43:48.921Z,6.41
2017-03-25T04:44:29.803Z,6.44
2017-03-25T04:45:10.680Z,6.44
2017-03-25T04:45:51.559Z,6.51
2017-03-25T04:46:32.439Z,6.42
2017-03-25T04:47:13.321Z,6.38
2017-03-25T04:47:54.208Z,6.45
2017-03-25T04:48:35.086Z,6.41
2017-03-25T04:49:15.959Z,6.45
2017-03-25T04:49:56.855Z,6.42
2017-03-25T04:50:37.735Z,6.39
2017-03-25T04:51:18.615Z,6.38
2017-03-25T04:51:59.496Z,6.54
2017-03-25T04:52:40.376Z,6.51
2017-03-25T04:53:21.275Z,6.49
2017-03-25T04:54:02.157Z,6.52
2017-03-25T04:54:43.037Z,6.44
2017-03-25T04:55:23.911Z,6.42
2017-03-25T04:56:04.792Z,6.51
2017-03-25T04:56:45.676Z,6.45
2017-03-25T04:57:26.551Z,6.41
2017-03-25T04:58:07.431Z,6.45
2017-03-25T04:58:48.307Z,6.54
2017-03-25T04:59:29.198Z,6.49
2017-03-25T05:00:10.075Z,6.51
2017-03-25T05:00:50.953Z,6.54
2017-03-25T05:01:31.835Z,6.52
2017-03-25T05:02:12.723Z,6.39
2017-03-25T05:02:53.606Z,6.46
2017-03-25T05:03:34.481Z,6.48
2017-03-25T05:04:15.367Z,6.51
2017-03-25T05:04:56.250Z,6.41
2017-03-25T05:05:37.136Z,6.38
2017-03-25T05:06:18.018Z,6.41
2017-03-25T05:06:58.898Z,6.39
2017-03-25T05:07:39.790Z,6.41
2017-03-25T05:08:20.675Z,6.46
2017-03-25T05:09:01.553Z,6.44
2017-03-25T05:09:42.437Z,6.52
2017-03-25T05:10:23.324Z,6.44
2017-03-25T05:11:04.199Z,6.48
2017-03-25T05:11:45.070Z,6.39
2017-03-25T05:12:25.957Z,6.44
2017-03-25T05:13:06.841Z,6.46
2017-03-25T05:13:47.721Z,6.62
2017-03-25T05:14:28.599Z,6.6
2017-03-25T05:15:09.477Z,6.49
2017-03-25T05:15:50.372Z,6.51
2017-03-25T05:16:31.241Z,6.52
2017-03-25T05:17:12.117Z,6.54
2017-03-25T05:17:53.003Z,6.57
2017-03-25T05:18:33.875Z,6.59
2017-03-25T05:19:14.753Z,6.6
2017-03-25T05:19:55.638Z,6.52
2017-03-25T05:20:36.520Z,6.57
2017-03-25T05:21:17.397Z,6.59
2017-03-25T05:21:58.286Z,6.45
2017-03-25T05:22:39.169Z,6.56
2017-03-25T05:23:20.055Z,6.54
2017-03-25T05:24:00.928Z,6.51
2017-03-25T05:24:41.804Z,6.52
2017-03-25T05:25:22.696Z,6.52
2017-03-25T05:26:03.578Z,6.44
2017-03-25T05:26:44.475Z,6.42
2017-03-25T05:27:25.374Z,6.48
2017-03-25T05:28:47.183Z,6.57
2017-03-25T05:29:28.064Z,6.52
2017-03-25T05:30:08.944Z,6.57
2017-03-25T05:30:49.819Z,6.52
2017-03-25T05:31:30.701Z,6.46
2017-03-25T05:32:11.582Z,6.51
2017-03-25T05:32:52.467Z,6.41
2017-03-25T05:33:33.337Z,6.46
2017-03-25T05:34:14.219Z,6.56
2017-03-25T05:34:55.100Z,6.59
2017-03-25T05:35:35.979Z,6.63
2017-03-25T05:36:16.863Z,6.52
2017-03-25T05:36:57.741Z,6.63
2017-03-25T05:37:38.638Z,6.57
2017-03-25T05:38:19.516Z,6.69
2017-03-25T05:39:00.396Z,6.64
2017-03-25T05:39:41.273Z,6.57
2017-03-25T05:40:22.160Z,6.51
2017-03-25T05:41:03.042Z,6.59
2017-03-25T05:41:43.922Z,6.57
2017-03-25T05:42:24.799Z,6.52
2017-03-25T05:43:05.676Z,6.6
2017-03-25T05:43:46.549Z,6.57
2017-03-25T05:44:27.434Z,6.59
2017-03-25T05:45:08.314Z,6.67
2017-03-25T05:45:49.192Z,6.66
2017-03-25T05:46:30.069Z,6.62
2017-03-25T05:47:10.945Z,6.66
2017-03-25T05:47:51.828Z,6.63
2017-03-25T05:48:32.709Z,6.67
2017-03-25T05:49:13.587Z,6.63
2017-03-25T05:49:54.463Z,6.69
2017-03-25T05:50:35.342Z,6.67
2017-03-25T05:51:16.221Z,6.66
2017-03-25T05:51:57.103Z,6.64
2017-03-25T05:52:37.983Z,6.7
2017-03-25T05:53:18.864Z,6.75
2017-03-25T05:53:59.747Z,6.78
2017-03-25T05:54:40.627Z,6.66
2017-03-25T05:55:21.513Z,6.74
2017-03-25T05:56:02.399Z,6.87
2017-03-25T05:56:43.298Z,6.79
2017-03-25T05:57:24.178Z,6.77
2017-03-25T05:58:05.057Z,6.78
2017-03-25T05:58:45.936Z,6.82
2017-03-25T05:59:26.820Z,6.74
2017-03-25T06:00:07.711Z,6.77
2017-03-25T06:00:48.586Z,6.85
2017-03-25T06:01:29.469Z,6.79
2017-03-25T06:02:10.350Z,6.85
2017-03-25T06:02:51.235Z,6.89
2017-03-25T06:03:32.106Z,6.81
2017-03-25T06:04:12.997Z,6.85
2017-03-25T06:04:53.879Z,6.84
2017-03-25T06:05:34.758Z,6.87
2017-03-25T06:06:15.631Z,6.78
2017-03-25T06:06:56.511Z,6.89
2017-03-25T06:07:37.387Z,6.87
2017-03-25T06:08:18.294Z,6.87
2017-03-25T06:08:59.165Z,6.87
2017-03-25T06:09:40.042Z,6.97
2017-03-25T06:10:20.923Z,7
2017-03-25T06:11:01.807Z,7.1
2017-03-25T06:11:42.692Z,7.06
2017-03-25T06:12:23.566Z,7.11
2017-03-25T06:13:04.443Z,7.03
2017-03-25T06:13:45.324Z,7.02
2017-03-25T06:14:26.209Z,7.02
2017-03-25T06:15:07.086Z,7.21
2017-03-25T06:15:47.963Z,7.06
2017-03-25T06:16:28.850Z,7.07
2017-03-25T06:17:09.727Z,7.06
2017-03-25T06:17:50.609Z,7.03
2017-03-25T06:18:31.489Z,7.06
2017-03-25T06:19:12.369Z,7.05
2017-03-25T06:19:53.263Z,7.05
2017-03-25T06:20:34.134Z,7.07
2017-03-25T06:21:15.012Z,7.07
2017-03-25T06:21:55.892Z,7.11
2017-03-25T06:22:36.775Z,7.11
2017-03-25T06:23:17.659Z,7.25
2017-03-25T06:23:58.527Z,7.28
2017-03-25T06:24:39.403Z,7.25
2017-03-25T06:25:20.283Z,7.23
2017-03-25T06:26:01.160Z,7.24
2017-03-25T06:26:42.059Z,7.18
2017-03-25T06:27:22.936Z,7.15
2017-03-25T06:28:03.814Z,7.23
2017-03-25T06:28:44.723Z,7.15
2017-03-25T06:29:25.577Z,7.18
2017-03-25T06:30:06.457Z,7.24
2017-03-25T06:30:47.329Z,7.28
2017-03-25T06:31:28.209Z,7.38
2017-03-25T06:32:09.093Z,7.28
2017-03-25T06:32:49.972Z,7.29
2017-03-25T06:33:30.850Z,7.33
2017-03-25T06:34:11.748Z,7.4
2017-03-25T06:34:52.625Z,7.28
2017-03-25T06:35:35.085Z,7.29
2017-03-25T06:36:15.961Z,7.32
2017-03-25T06:36:56.847Z,7.42
2017-03-25T06:37:37.721Z,7.42
2017-03-25T06:38:18.602Z,7.31
2017-03-25T06:38:59.482Z,7.4
2017-03-25T06:39:40.360Z,7.4
2017-03-25T06:40:21.249Z,7.39
2017-03-25T06:41:02.126Z,7.31
2017-03-25T06:41:43.000Z,7.45
2017-03-25T06:42:23.878Z,7.39
2017-03-25T06:43:04.758Z,7.5
2017-03-25T06:43:45.643Z,7.4
2017-03-25T06:44:26.525Z,7.47
2017-03-25T06:45:07.407Z,7.38
2017-03-25T06:45:48.300Z,7.51
2017-03-25T06:46:29.186Z,7.45
2017-03-25T06:47:10.062Z,7.42
2017-03-25T06:47:50.938Z,7.5
2017-03-25T06:48:31.822Z,7.48
2017-03-25T06:49:12.702Z,7.38
2017-03-25T06:49:53.582Z,7.5
2017-03-25T06:50:34.462Z,7.5
2017-03-25T06:51:15.339Z,7.5
2017-03-25T06:51:56.218Z,7.53
2017-03-25T06:52:37.102Z,7.53
2017-03-25T06:53:17.986Z,7.38
2017-03-25T06:53:58.866Z,7.42
2017-03-25T06:54:39.751Z,7.39
2017-03-25T06:55:20.643Z,7.39
2017-03-25T06:56:01.520Z,7.5
2017-03-25T06:56:42.401Z,7.61
2017-03-25T06:57:23.283Z,7.58
2017-03-25T06:58:04.166Z,7.63
2017-03-25T06:58:45.052Z,7.72
2017-03-25T06:59:25.923Z,7.67
2017-03-25T07:00:06.799Z,7.7
2017-03-25T07:00:47.682Z,7.6
2017-03-25T07:01:28.567Z,7.67
2017-03-25T07:02:09.491Z,7.61
2017-03-25T07:02:50.338Z,7.61
2017-03-25T07:03:31.230Z,7.63
2017-03-25T07:04:12.153Z,7.57
2017-03-25T07:04:52.995Z,7.63
2017-03-25T07:05:33.882Z,7.63
2017-03-25T07:06:14.771Z,7.61
2017-03-25T07:06:55.650Z,7.7
2017-03-25T07:07:36.529Z,7.72
2017-03-25T07:08:17.404Z,7.75
2017-03-25T07:08:58.284Z,7.67
2017-03-25T07:09:39.187Z,7.8
2017-03-25T07:10:20.064Z,7.79
2017-03-25T07:11:00.935Z,7.85
2017-03-25T07:11:41.819Z,7.9
2017-03-25T07:12:22.704Z,7.85
2017-03-25T07:13:03.599Z,7.82
2017-03-25T07:13:44.482Z,7.91
2017-03-25T07:14:25.382Z,7.98
2017-03-25T07:15:06.253Z,8.08
2017-03-25T07:15:47.133Z,8.09
2017-03-25T07:16:28.017Z,8.19
2017-03-25T07:17:08.896Z,8.06
2017-03-25T07:17:49.785Z,8.05
2017-03-25T07:18:30.653Z,8.12
2017-03-25T07:19:11.535Z,8
2017-03-25T07:19:52.422Z,8.1
2017-03-25T07:20:33.306Z,8.01
2017-03-25T07:21:14.181Z,7.97
2017-03-25T07:21:55.059Z,8.03
2017-03-25T07:22:35.934Z,8.12
2017-03-25T07:23:16.831Z,8.2
2017-03-25T07:23:57.713Z,8.26
2017-03-25T07:24:38.591Z,8.24
2017-03-25T07:25:19.470Z,8.26
2017-03-25T07:26:00.349Z,8.34
2017-03-25T07:26:41.230Z,8.42
2017-03-25T07:27:22.123Z,8.2
2017-03-25T07:28:03.004Z,8.16
2017-03-25T07:28:43.893Z,8.24
2017-03-25T07:29:24.771Z,8.26
2017-03-25T07:30:05.655Z,8.26
2017-03-25T07:30:46.539Z,8.42
2017-03-25T07:31:27.423Z,8.31
2017-03-25T07:32:08.307Z,8.31
2017-03-25T07:32:49.190Z,8.48
2017-03-25T07:33:30.068Z,8.33
2017-03-25T07:34:10.958Z,8.31
2017-03-25T07:34:51.846Z,8.46
2017-03-25T07:35:32.727Z,8.53
2017-03-25T07:36:13.607Z,8.63
2017-03-25T07:36:54.492Z,8.63
2017-03-25T07:37:35.366Z,8.53
2017-03-25T07:38:18.091Z,8.55
2017-03-25T07:38:58.980Z,8.6
2017-03-25T07:39:39.861Z,8.58
2017-03-25T07:40:20.742Z,8.46
2017-03-25T07:41:01.630Z,8.42
2017-03-25T07:41:42.512Z,8.37
2017-03-25T07:42:23.400Z,8.42
2017-03-25T07:43:04.281Z,8.44
2017-03-25T07:43:45.159Z,8.37
2017-03-25T07:44:26.036Z,8.46
2017-03-25T07:45:06.918Z,8.46
2017-03-25T07:45:47.799Z,8.48
2017-03-25T07:46:28.678Z,8.55
2017-03-25T07:47:09.548Z,8.53
2017-03-25T07:47:50.442Z,8.46
2017-03-25T07:48:31.324Z,8.55
2017-03-25T07:49:12.209Z,8.6
2017-03-25T07:49:53.089Z,8.61
2017-03-25T07:50:33.979Z,8.69
2017-03-25T07:51:14.860Z,8.73
2017-03-25T07:51:55.751Z,8.74
2017-03-25T07:52:36.630Z,8.78
2017-03-25T07:53:17.509Z,8.56
2017-03-25T07:53:58.396Z,8.6
2017-03-25T07:54:39.282Z,8.67
2017-03-25T07:55:20.138Z,8.7
2017-03-25T07:56:01.023Z,8.74
2017-03-25T07:56:41.905Z,8.69
2017-03-25T07:57:22.791Z,8.74
2017-03-25T07:58:03.676Z,8.84
2017-03-25T07:58:44.547Z,8.94
2017-03-25T07:59:25.430Z,8.92
2017-03-25T08:00:06.311Z,8.91
2017-03-25T08:00:47.198Z,8.89
2017-03-25T08:01:28.079Z,8.7
2017-03-25T08:02:08.957Z,8.79
2017-03-25T08:02:49.833Z,8.63
2017-03-25T08:03:30.717Z,8.92
2017-03-25T08:04:11.594Z,9.02
2017-03-25T08:04:52.477Z,9.04
2017-03-25T08:05:33.363Z,8.95
2017-03-25T08:06:14.247Z,8.95
2017-03-25T08:06:55.125Z,9.02
2017-03-25T08:07:36.001Z,9.02
2017-03-25T08:08:16.878Z,9.1
2017-03-25T08:08:57.758Z,9.23
2017-03-25T08:09:38.640Z,9.32
2017-03-25T08:10:19.519Z,9.22
2017-03-25T08:11:00.405Z,9.22
2017-03-25T08:11:41.287Z,9.21
2017-03-25T08:12:22.172Z,9.22
2017-03-25T08:13:03.082Z,9.28
2017-03-25T08:13:43.963Z,9.26
2017-03-25T08:14:24.855Z,9.29
2017-03-25T08:15:05.734Z,9.36
2017-03-25T08:15:46.609Z,9.28
2017-03-25T08:16:27.493Z,9.36
2017-03-25T08:17:08.380Z,9.29
2017-03-25T08:17:49.265Z,9.34
2017-03-25T08:18:30.166Z,9.29
2017-03-25T08:19:11.057Z,9.32
2017-03-25T08:19:51.960Z,9.16
2017-03-25T08:20:32.842Z,9.02
2017-03-25T08:21:13.725Z,8.89
2017-03-25T08:21:54.613Z,9.04
2017-03-25T08:22:35.491Z,8.92
2017-03-25T08:23:16.364Z,8.91
2017-03-25T08:23:57.245Z,8.88
2017-03-25T08:24:38.164Z,8.89
2017-03-25T08:25:19.004Z,8.87
2017-03-25T08:25:59.889Z,8.95
2017-03-25T08:26:40.778Z,8.95
2017-03-25T08:27:21.662Z,9.06
2017-03-25T08:28:02.547Z,9.22
2017-03-25T08:28:43.437Z,9.06
2017-03-25T08:29:24.305Z,9.1
2017-03-25T08:30:05.189Z,9.16
2017-03-25T08:30:46.080Z,9.21
2017-03-25T08:31:26.958Z,9.22
2017-03-25T08:32:07.840Z,9.34
2017-03-25T08:32:48.723Z,9.34
2017-03-25T08:33:29.599Z,9.32
2017-03-25T08:34:10.481Z,9.23
2017-03-25T08:34:51.365Z,9.23
2017-03-25T08:35:32.244Z,8.99
2017-03-25T08:36:13.120Z,9.03
2017-03-25T08:36:53.996Z,9.11
2017-03-25T08:37:34.873Z,9.08
2017-03-25T08:38:15.765Z,9.04
2017-03-25T08:39:43.866Z,9.02
2017-03-25T08:40:24.751Z,8.97
2017-03-25T08:41:05.647Z,9.08
2017-03-25T08:41:46.535Z,9.28
2017-03-25T08:42:27.413Z,9.44
2017-03-25T08:43:08.294Z,9.48
2017-03-25T08:43:49.179Z,9.48
2017-03-25T08:44:30.068Z,9.43
2017-03-25T08:45:10.973Z,9.36
2017-03-25T08:45:51.859Z,9.4
2017-03-25T08:46:32.742Z,9.43
2017-03-25T08:47:13.636Z,9.54
2017-03-25T08:47:54.521Z,9.5
2017-03-25T08:48:35.407Z,9.44
2017-03-25T08:49:16.291Z,9.5
2017-03-25T08:49:57.162Z,9.51
2017-03-25T08:50:38.043Z,9.61
2017-03-25T08:51:18.927Z,9.59
2017-03-25T08:51:59.802Z,9.59
2017-03-25T08:52:40.683Z,9.62
2017-03-25T08:53:21.564Z,9.62
2017-03-25T08:54:02.444Z,9.61
2017-03-25T08:54:43.332Z,9.51
2017-03-25T08:55:24.215Z,9.59
2017-03-25T08:56:05.103Z,9.65
2017-03-25T08:56:45.999Z,9.58
2017-03-25T08:57:26.881Z,9.64
2017-03-25T08:58:07.763Z,9.68
2017-03-25T08:58:48.653Z,9.74
2017-03-25T08:59:29.525Z,9.61
2017-03-25T09:00:10.406Z,9.76
2017-03-25T09:00:51.290Z,9.72
2017-03-25T09:01:32.171Z,9.68
2017-03-25T09:02:13.052Z,9.83
2017-03-25T09:02:53.938Z,9.8
2017-03-25T09:03:34.819Z,9.76
2017-03-25T09:04:15.699Z,9.77
2017-03-25T09:04:56.586Z,9.66
2017-03-25T09:05:37.460Z,9.74
2017-03-25T09:06:18.336Z,9.61
2017-03-25T09:06:59.218Z,9.62